Time;durP1;ratioP1;P1;durP2;ratioP2;P2;SDS_P1;SDS_P2;PMS_P1;PMS_P2;Temp;Humidity;BMP_temperature;BMP_pressure;BME280_temperature;BME280_humidity;BME280_pressure;Samples;Min_cycle;Max_cycle;Signal;HPM_P1;HPM_P2
2021/06/03 00:00:16;;;;;;;1.90;1.80;;;;;;;16.84;67.72;100772.53;4975952;28;20269;-71
2021/06/03 00:02:43;;;;;;;2.03;1.80;;;;;;;16.86;67.83;100773.00;4976361;28;20563;-71
2021/06/03 00:05:08;;;;;;;2.33;2.23;;;;;;;16.84;67.77;100776.09;4982895;28;20267;-71
2021/06/03 00:07:34;;;;;;;1.50;1.40;;;;;;;16.73;67.90;100776.91;4979106;28;20650;-71
2021/06/03 00:09:59;;;;;;;1.73;1.63;;;;;;;16.54;68.88;100778.25;4976986;28;20185;-71
2021/06/03 00:12:25;;;;;;;3.90;2.47;;;;;;;16.39;69.79;100773.41;4975786;28;20170;-71
2021/06/03 00:14:50;;;;;;;1.90;1.80;;;;;;;16.37;69.81;100767.41;4975412;28;20186;-71
2021/06/03 00:17:16;;;;;;;2.23;1.83;;;;;;;16.33;70.27;100772.00;4975485;28;20184;-71
2021/06/03 00:19:41;;;;;;;1.90;1.80;;;;;;;16.34;70.50;100766.13;4975191;28;20205;-71
2021/06/03 00:22:06;;;;;;;1.70;1.60;;;;;;;16.20;70.33;100762.91;4975384;28;20185;-71
2021/06/03 00:24:32;;;;;;;2.20;2.00;;;;;;;16.31;69.47;100764.06;4975237;28;20181;-71
2021/06/03 00:26:57;;;;;;;1.67;1.57;;;;;;;16.39;69.62;100765.13;4975258;28;20201;-71
2021/06/03 00:29:22;;;;;;;2.10;1.90;;;;;;;16.46;68.49;100759.84;4975084;28;20178;-71
2021/06/03 00:31:48;;;;;;;1.80;1.60;;;;;;;16.53;68.38;100753.75;4975215;28;20174;-71
2021/06/03 00:34:13;;;;;;;1.63;1.53;;;;;;;16.52;68.68;100758.47;4975108;28;20232;-71
2021/06/03 00:36:38;;;;;;;2.83;1.60;;;;;;;16.47;68.45;100758.69;4975251;28;20174;-71
2021/06/03 00:39:05;;;;;;;1.97;1.87;;;;;;;16.44;68.80;100751.09;4974758;28;20559;-71
2021/06/03 00:41:30;;;;;;;1.83;1.73;;;;;;;16.40;69.24;100752.94;4974934;28;20182;-71
2021/06/03 00:43:56;;;;;;;1.63;1.53;;;;;;;16.27;69.54;100746.59;4975114;28;20193;-71
2021/06/03 00:46:21;;;;;;;1.70;1.60;;;;;;;16.22;69.42;100744.06;4973743;28;20720;-71
2021/06/03 00:48:47;;;;;;;2.40;1.97;;;;;;;16.24;69.21;100747.28;4974894;28;20201;-72
2021/06/03 00:51:12;;;;;;;1.90;1.80;;;;;;;16.24;69.96;100743.72;4974882;28;20811;-70
2021/06/03 00:53:40;;;;;;;1.67;1.57;;;;;;;16.18;69.88;100745.06;4974803;28;20520;-71
2021/06/03 00:56:06;;;;;;;1.53;1.43;;;;;;;16.21;69.76;100749.94;4974614;28;20178;-71
2021/06/03 00:58:31;;;;;;;1.83;1.73;;;;;;;16.17;69.82;100757.25;4974472;28;20213;-71
2021/06/03 01:00:57;;;;;;;1.97;1.87;;;;;;;16.05;70.41;100761.59;4974690;28;20708;-71
2021/06/03 01:03:28;;;;;;;1.80;1.70;;;;;;;16.11;69.82;100755.88;4974697;28;20201;-71
2021/06/03 01:06:03;;;;;;;2.07;1.97;;;;;;;16.17;70.25;100751.75;4974597;28;20209;-71
2021/06/03 01:08:34;;;;;;;2.03;1.93;;;;;;;16.26;69.03;100749.69;4973920;28;20181;-71
2021/06/03 01:11:09;;;;;;;2.00;1.90;;;;;;;16.17;69.66;100751.75;4974697;28;20184;-72
2021/06/03 01:13:52;;;;;;;2.17;1.97;;;;;;;16.10;70.46;100768.03;4974291;28;20193;-71
2021/06/03 01:16:19;;;;;;;2.53;2.40;;;;;;;15.80;71.02;100762.66;4973110;28;20577;-71
2021/06/03 01:18:45;;;;;;;2.60;2.40;;;;;;;15.94;71.16;100765.94;4974077;28;20209;-71
2021/06/03 01:21:21;;;;;;;2.20;2.10;;;;;;;16.17;71.17;100763.56;4974290;28;20177;-71
2021/06/03 01:24:13;;;;;;;2.10;2.00;;;;;;;16.30;71.14;100765.22;4974192;28;20178;-71
2021/06/03 01:26:39;;;;;;;2.13;2.03;;;;;;;16.32;70.84;100762.91;4974613;28;20625;-72
2021/06/03 01:29:04;;;;;;;1.90;1.80;;;;;;;15.97;72.00;100758.94;4985545;28;20272;-71
2021/06/03 01:31:30;;;;;;;1.93;1.83;;;;;;;15.96;72.50;100757.31;4993790;28;20304;-71
2021/06/03 01:33:55;;;;;;;2.43;2.23;;;;;;;16.05;72.44;100755.28;4992155;28;20571;-71
2021/06/03 01:36:21;;;;;;;2.20;2.10;;;;;;;16.09;72.28;100760.94;4993527;28;20590;-71
2021/06/03 01:38:47;;;;;;;2.10;2.00;;;;;;;16.02;72.87;100754.00;4993186;28;20209;-71
2021/06/03 01:41:13;;;;;;;2.23;2.13;;;;;;;15.97;72.97;100754.22;4993368;28;20188;-71
2021/06/03 01:43:42;;;;;;;2.00;1.90;;;;;;;16.00;72.65;100759.06;4993173;28;20629;-71
2021/06/03 01:46:09;;;;;;;2.00;1.90;;;;;;;16.09;72.30;100760.94;4993321;28;20208;-72
2021/06/03 01:48:35;;;;;;;1.87;1.77;;;;;;;16.05;72.23;100758.81;4993081;28;20173;-71
2021/06/03 01:51:05;;;;;;;2.17;2.07;;;;;;;15.97;72.61;100756.97;4993274;28;20177;-71
2021/06/03 01:53:31;;;;;;;2.10;2.00;;;;;;;15.85;73.00;100750.63;4993135;28;20188;-71
2021/06/03 01:56:02;;;;;;;1.97;1.80;;;;;;;15.54;73.86;100746.34;4993068;28;20268;-71
2021/06/03 01:58:29;;;;;;;2.07;1.97;;;;;;;15.39;74.33;100749.72;4992724;28;20307;-71
2021/06/03 02:00:55;;;;;;;2.00;1.90;;;;;;;15.28;74.86;100748.50;4993353;28;20186;-71
2021/06/03 02:03:23;;;;;;;1.73;1.63;;;;;;;15.15;75.40;100753.13;4992968;28;20252;-71
2021/06/03 02:05:48;;;;;;;1.53;1.43;;;;;;;15.04;76.00;100754.63;4991632;28;20181;-71
2021/06/03 02:08:13;;;;;;;1.63;1.53;;;;;;;14.84;77.12;100754.28;4992701;28;20183;-71
2021/06/03 02:10:40;;;;;;;1.83;1.73;;;;;;;14.63;78.14;100758.94;4991489;28;20185;-71
2021/06/03 02:13:13;;;;;;;1.80;1.70;;;;;;;14.42;79.55;100760.75;4992653;28;20243;-71
2021/06/03 02:16:01;;;;;;;1.73;1.63;;;;;;;14.33;80.10;100760.81;4992748;28;20617;-71
2021/06/03 02:18:36;;;;;;;1.60;1.50;;;;;;;14.41;80.04;100770.16;4992408;28;20412;-71
2021/06/03 02:21:03;;;;;;;1.80;1.70;;;;;;;14.47;79.62;100763.38;4991892;28;20312;-71
2021/06/03 02:23:29;;;;;;;2.03;1.93;;;;;;;14.21;80.47;100758.75;4992547;28;20229;-71
2021/06/03 02:26:00;;;;;;;2.63;2.33;;;;;;;14.30;80.86;100765.00;4992421;28;20180;-71
2021/06/03 02:28:28;;;;;;;1.90;1.80;;;;;;;14.58;79.96;100770.09;4991003;28;20268;-71
2021/06/03 02:30:56;;;;;;;1.93;1.83;;;;;;;14.74;79.28;100773.91;4992464;28;20177;-71
2021/06/03 02:33:22;;;;;;;1.67;1.50;;;;;;;14.87;78.71;100772.06;4992476;28;20178;-71
2021/06/03 02:35:48;;;;;;;1.97;1.87;;;;;;;14.87;77.90;100766.56;4992157;28;20178;-71
2021/06/03 02:38:15;;;;;;;1.83;1.73;;;;;;;14.62;78.76;100765.56;4992021;28;20204;-71
2021/06/03 02:40:42;;;;;;;2.23;2.03;;;;;;;14.61;79.46;100766.72;4992162;28;20170;-72
2021/06/03 02:43:07;;;;;;;2.10;2.00;;;;;;;14.79;78.78;100771.00;4992494;28;20239;-71
2021/06/03 02:45:34;;;;;;;2.03;1.93;;;;;;;14.87;78.50;100772.06;4992135;28;20173;-71
2021/06/03 02:48:01;;;;;;;2.63;2.20;;;;;;;14.93;78.17;100770.75;4991972;28;20179;-71
2021/06/03 02:50:27;;;;;;;2.40;2.20;;;;;;;14.75;78.29;100770.00;4991918;28;20256;-71
2021/06/03 02:52:54;;;;;;;2.00;1.90;;;;;;;14.82;78.52;100775.00;4992239;28;20183;-71
2021/06/03 02:55:22;;;;;;;2.03;1.93;;;;;;;14.92;77.40;100771.91;4991897;28;20177;-71
2021/06/03 02:57:47;;;;;;;2.07;1.97;;;;;;;14.80;77.20;100772.59;4991910;28;20646;-70
2021/06/03 03:00:18;;;;;;;1.80;1.70;;;;;;;14.54;77.92;100785.66;4991886;28;20251;-71
2021/06/03 03:02:44;;;;;;;1.80;1.70;;;;;;;14.53;78.66;100787.59;4991858;28;20239;-71
2021/06/03 03:05:10;;;;;;;2.10;2.00;;;;;;;14.42;79.39;100782.75;4991857;28;20173;-71
2021/06/03 03:07:36;;;;;;;1.93;1.83;;;;;;;14.51;79.07;100784.38;4991802;28;20770;-71
2021/06/03 03:10:05;;;;;;;2.03;1.93;;;;;;;14.43;79.15;100787.91;4991657;28;20560;-71
2021/06/03 03:12:30;;;;;;;2.30;2.10;;;;;;;14.28;79.53;100792.00;4991452;28;20744;-71
2021/06/03 03:14:56;;;;;;;1.90;1.80;;;;;;;14.05;80.39;100800.81;4991681;28;20260;-71
2021/06/03 03:17:21;;;;;;;2.00;1.80;;;;;;;13.96;81.23;100798.88;4992012;28;20256;-71
2021/06/03 03:19:46;;;;;;;1.80;1.70;;;;;;;13.99;82.07;100795.47;4991248;28;20290;-71
2021/06/03 03:22:12;;;;;;;3.13;2.90;;;;;;;14.02;82.17;100796.75;4974919;28;20795;-71
2021/06/03 03:24:37;;;;;;;2.17;2.00;;;;;;;14.05;81.48;100792.56;4972015;28;20293;-71
2021/06/03 03:27:03;;;;;;;2.03;1.93;;;;;;;14.05;82.05;100789.81;4972086;28;20177;-71
2021/06/03 03:29:28;;;;;;;2.13;2.03;;;;;;;13.99;82.64;100792.72;4971809;28;20309;-71
2021/06/03 03:31:54;;;;;;;2.40;2.17;;;;;;;14.17;81.92;100789.94;4971916;28;20552;-71
2021/06/03 03:34:19;;;;;;;2.23;2.13;;;;;;;14.23;81.04;100792.19;4971825;28;20264;-71
2021/06/03 03:36:45;;;;;;;2.53;2.33;;;;;;;14.11;81.25;100794.81;4972010;28;20174;-71
2021/06/03 03:39:11;;;;;;;2.20;2.03;;;;;;;14.05;81.85;100798.88;4971678;28;20201;-71
2021/06/03 03:41:36;;;;;;;2.50;2.30;;;;;;;14.01;82.00;100800.63;4971989;28;20708;-71
2021/06/03 03:44:02;;;;;;;2.53;2.33;;;;;;;13.90;82.35;100807.63;4971971;28;20177;-71
2021/06/03 03:46:27;;;;;;;2.43;2.23;;;;;;;13.86;83.01;100801.94;4971860;28;20177;-71
2021/06/03 03:48:53;;;;;;;2.00;1.90;;;;;;;13.90;83.65;100811.16;4971661;28;20170;-71
2021/06/03 03:51:18;;;;;;;2.10;2.00;;;;;;;13.98;82.87;100806.78;4971825;28;20248;-71
2021/06/03 03:53:44;;;;;;;2.70;2.50;;;;;;;13.97;82.68;100810.66;4971765;28;20566;-71
2021/06/03 03:56:11;;;;;;;1.80;1.70;;;;;;;13.79;83.23;100815.38;4971792;28;20170;-71
2021/06/03 03:58:39;;;;;;;2.30;2.20;;;;;;;13.80;83.82;100816.97;4971521;28;20690;-71
2021/06/03 04:01:05;;;;;;;2.23;2.13;;;;;;;13.87;84.19;100813.72;4971706;28;20174;-71
2021/06/03 04:03:30;;;;;;;2.80;2.20;;;;;;;13.88;83.80;100818.91;4971540;28;20170;-72
2021/06/03 04:05:56;;;;;;;2.60;2.40;;;;;;;13.94;83.71;100819.56;4971671;28;20297;-71
2021/06/03 04:08:21;;;;;;;2.03;1.90;;;;;;;14.00;83.03;100823.75;4971551;28;20182;-72
2021/06/03 04:10:47;;;;;;;2.07;1.97;;;;;;;14.08;82.99;100827.63;4971661;28;20212;-72
2021/06/03 04:13:13;;;;;;;2.00;1.87;;;;;;;14.08;82.88;100831.19;4971510;28;20553;-71
2021/06/03 04:15:38;;;;;;;2.53;2.33;;;;;;;14.11;83.60;100835.22;4971635;28;20634;-71
2021/06/03 04:18:04;;;;;;;2.20;2.10;;;;;;;14.08;83.92;100828.44;4971238;28;20225;-71
2021/06/03 04:20:29;;;;;;;2.50;2.33;;;;;;;13.71;85.21;100835.38;4971610;28;20178;-71
2021/06/03 04:22:54;;;;;;;3.00;2.80;;;;;;;13.49;86.23;100830.88;4971994;28;20225;-71
2021/06/03 04:25:20;;;;;;;3.03;2.80;;;;;;;13.46;86.81;100833.44;4970230;28;20185;-72
2021/06/03 04:27:46;;;;;;;4.83;2.40;;;;;;;13.80;85.84;100829.91;4971244;28;20202;-71
2021/06/03 04:30:15;;;;;;;3.73;3.53;;;;;;;13.90;85.32;100832.34;4971515;28;20691;-71
2021/06/03 04:32:41;;;;;;;2.80;2.60;;;;;;;14.02;84.40;100831.66;4971327;28;20179;-71
2021/06/03 04:35:07;;;;;;;3.37;3.07;;;;;;;14.11;84.14;100835.22;4971699;28;20489;-71
2021/06/03 04:37:32;;;;;;;2.90;2.70;;;;;;;14.05;84.24;100829.09;4971418;28;20182;-71
2021/06/03 04:39:57;;;;;;;2.97;2.77;;;;;;;13.91;85.04;100831.19;4971246;28;20213;-71
2021/06/03 04:42:23;;;;;;;3.33;3.13;;;;;;;13.63;86.27;100833.47;4971466;28;20232;-71
2021/06/03 04:44:49;;;;;;;2.83;2.63;;;;;;;13.61;86.90;100833.78;4973160;28;20689;-72
2021/06/03 04:47:14;;;;;;;3.97;3.57;;;;;;;13.87;86.21;100831.03;4974670;28;20192;-71
2021/06/03 04:49:39;;;;;;;2.43;2.23;;;;;;;14.10;85.26;100841.84;4974897;28;20188;-71
2021/06/03 04:54:49;;;;;;;2.60;2.50;;;;;;;14.29;85.48;100842.28;4975290;28;20216;-71
2021/06/03 04:57:14;;;;;;;3.93;3.17;;;;;;;14.22;85.29;100844.75;4974758;28;20186;-71
2021/06/03 04:59:40;;;;;;;3.30;3.10;;;;;;;14.26;84.99;100843.75;4974538;28;20210;-71
2021/06/03 05:02:05;;;;;;;3.30;3.10;;;;;;;14.45;84.16;100842.59;4974656;28;20221;-71
2021/06/03 05:04:30;;;;;;;3.70;3.40;;;;;;;14.64;83.58;100845.00;4974633;28;20178;-71
2021/06/03 05:06:56;;;;;;;3.87;3.57;;;;;;;14.80;82.60;100841.38;4974575;28;20178;-72
2021/06/03 05:09:21;;;;;;;2.93;2.73;;;;;;;15.00;81.55;100853.56;4974459;28;20181;-72
2021/06/03 05:11:46;;;;;;;3.00;2.87;;;;;;;15.12;80.65;100847.38;4974549;28;20213;-71
2021/06/03 05:14:12;;;;;;;3.03;2.83;;;;;;;15.23;80.49;100851.34;4974000;28;20629;-71
2021/06/03 05:16:37;;;;;;;3.10;2.90;;;;;;;15.26;79.90;100845.19;4974385;28;20174;-71
2021/06/03 05:19:02;;;;;;;3.23;3.03;;;;;;;15.41;79.80;100844.59;4981357;28;20209;-71
2021/06/03 05:21:28;;;;;;;3.50;3.20;;;;;;;15.47;79.23;100842.44;4994052;28;20177;-71
2021/06/03 05:23:53;;;;;;;3.13;2.93;;;;;;;15.57;79.60;100841.25;4993959;28;20182;-71
2021/06/03 05:26:19;;;;;;;3.10;2.90;;;;;;;15.73;79.16;100850.56;4993657;28;20174;-72
2021/06/03 05:28:44;;;;;;;3.77;3.47;;;;;;;15.85;79.55;100855.34;4993369;28;20177;-72
2021/06/03 05:31:09;;;;;;;2.67;2.57;;;;;;;15.91;78.55;100860.31;4993660;28;20174;-71
2021/06/03 05:33:35;;;;;;;3.57;3.37;;;;;;;16.05;79.16;100854.50;4993913;28;20189;-71
2021/06/03 05:36:01;;;;;;;3.60;3.30;;;;;;;16.17;77.37;100857.31;4993595;28;20240;-72
2021/06/03 05:38:27;;;;;;;3.37;3.07;;;;;;;16.25;77.33;100853.69;4993361;28;20193;-71
2021/06/03 05:40:52;;;;;;;3.53;3.30;;;;;;;16.22;76.86;100848.03;4993510;28;20188;-71
2021/06/03 05:43:18;;;;;;;3.23;3.03;;;;;;;16.38;77.24;100856.47;4993387;28;20212;-71
2021/06/03 05:45:43;;;;;;;3.67;3.37;;;;;;;16.55;77.11;100856.28;4993666;28;20180;-72
2021/06/03 05:48:09;;;;;;;9.57;3.87;;;;;;;16.81;77.03;100858.78;4993426;28;20185;-72
2021/06/03 05:50:35;;;;;;;3.23;3.03;;;;;;;16.84;75.88;100864.41;4993543;28;20208;-71
2021/06/03 05:53:00;;;;;;;3.00;2.83;;;;;;;16.85;75.57;100868.78;4993285;28;20173;-71
2021/06/03 05:55:25;;;;;;;3.50;3.30;;;;;;;16.77;76.54;100866.09;4992104;28;20173;-72
2021/06/03 05:57:51;;;;;;;4.03;3.67;;;;;;;16.79;76.25;100861.09;4992945;28;20209;-71
2021/06/03 06:00:21;;;;;;;3.53;3.33;;;;;;;16.90;76.38;100867.75;4992953;28;20216;-71
2021/06/03 06:02:55;;;;;;;4.00;3.70;;;;;;;17.02;75.52;100864.19;4993078;28;20648;-70
2021/06/03 06:08:07;;;;;;;6.50;4.03;;;;;;;17.18;75.18;100871.44;4993498;28;20633;-71
2021/06/03 06:10:33;;;;;;;5.13;3.50;;;;;;;17.33;75.48;100867.16;4995395;28;20209;-71
2021/06/03 06:12:59;;;;;;;3.40;3.20;;;;;;;17.40;74.67;100872.94;5001618;28;20185;-71
2021/06/03 06:15:25;;;;;;;4.47;4.17;;;;;;;17.47;73.88;100872.34;4995548;28;20540;-71
2021/06/03 06:17:51;;;;;;;7.27;3.43;;;;;;;17.54;74.47;100876.13;4993747;28;20584;-71
2021/06/03 06:20:16;;;;;;;4.50;3.53;;;;;;;17.71;73.86;100877.06;4992765;28;20267;-70
2021/06/03 06:22:42;;;;;;;3.90;3.60;;;;;;;17.81;73.28;100871.06;4991384;28;20188;-71
2021/06/03 06:25:08;;;;;;;5.77;3.77;;;;;;;17.84;73.91;100868.38;4992583;28;20180;-71
2021/06/03 06:27:33;;;;;;;5.20;4.43;;;;;;;17.93;74.11;100882.06;4992498;28;20641;-71
2021/06/03 06:29:59;;;;;;;4.60;4.20;;;;;;;18.02;74.64;100892.97;4992694;28;20181;-71
2021/06/03 06:32:25;;;;;;;3.63;3.43;;;;;;;18.19;73.97;100895.44;4992653;28;20232;-71
2021/06/03 06:34:50;;;;;;;4.57;4.20;;;;;;;18.30;73.89;100896.56;4992319;28;20614;-71
2021/06/03 06:37:15;;;;;;;4.20;4.00;;;;;;;18.27;72.45;100890.94;4991165;28;20273;-70
2021/06/03 06:39:41;;;;;;;4.47;4.17;;;;;;;18.66;72.46;100892.03;4991932;28;20240;-71
2021/06/03 06:42:06;;;;;;;3.60;3.30;;;;;;;18.95;70.98;100899.09;4992285;28;20181;-70
2021/06/03 06:44:32;;;;;;;3.00;2.80;;;;;;;19.16;69.19;100888.56;4992422;28;20281;-71
2021/06/03 06:46:57;;;;;;;3.33;3.03;;;;;;;19.23;69.19;100896.22;4992314;28;20693;-71
2021/06/03 06:49:22;;;;;;;3.23;3.00;;;;;;;19.41;67.97;100894.72;4991932;28;20513;-72
2021/06/03 06:51:48;;;;;;;2.93;2.73;;;;;;;19.53;66.95;100897.38;4992396;28;20189;-72
2021/06/03 06:54:13;;;;;;;3.97;3.57;;;;;;;19.82;66.30;100898.06;4984865;28;20185;-72
2021/06/03 06:56:38;;;;;;;3.23;2.93;;;;;;;19.94;66.52;100897.09;4990650;28;20311;-72
2021/06/03 06:59:04;;;;;;;3.57;3.17;;;;;;;20.00;65.47;100904.78;4991837;28;20219;-72
2021/06/03 07:01:29;;;;;;;2.70;2.50;;;;;;;20.05;64.76;100890.59;4991953;28;20181;-71
2021/06/03 07:03:55;;;;;;;3.77;3.33;;;;;;;20.17;65.88;100893.25;4991979;28;20658;-71
2021/06/03 07:06:20;;;;;;;3.20;2.83;;;;;;;20.32;67.07;100893.53;4991761;28;20622;-72
2021/06/03 07:08:45;;;;;;;2.33;2.13;;;;;;;20.44;63.40;100898.97;4991391;28;20185;-71
2021/06/03 07:11:11;;;;;;;3.00;2.63;;;;;;;20.58;65.06;100907.56;4981693;28;20186;-71
2021/06/03 07:13:36;;;;;;;2.37;2.27;;;;;;;20.65;63.95;100902.13;4979995;28;20189;-73
2021/06/03 07:16:02;;;;;;;1.97;1.87;;;;;;;20.77;62.03;100896.41;4991229;28;20719;-71
2021/06/03 07:18:27;;;;;;;2.00;1.90;;;;;;;20.92;62.18;100900.22;4991476;28;20210;-72
2021/06/03 07:20:53;;;;;;;1.73;1.63;;;;;;;21.01;59.36;100891.66;4991710;28;20185;-71
2021/06/03 07:23:19;;;;;;;1.63;1.53;;;;;;;21.03;57.20;100894.88;4991453;28;20175;-73
2021/06/03 07:25:45;;;;;;;1.60;1.50;;;;;;;21.07;58.34;100896.50;4990413;28;20329;-73
2021/06/03 07:28:10;;;;;;;1.70;1.60;;;;;;;21.13;57.25;100894.25;4990130;28;20260;-74
2021/06/03 07:30:36;;;;;;;2.03;1.93;;;;;;;21.19;56.33;100901.09;4991586;28;20659;-71
2021/06/03 07:33:03;;;;;;;1.93;1.83;;;;;;;21.28;56.71;100892.53;4991575;28;20178;-72
2021/06/03 07:35:30;;;;;;;1.60;1.50;;;;;;;21.41;56.31;100904.22;4989304;28;20293;-72
2021/06/03 07:37:56;;;;;;;1.63;1.50;;;;;;;21.50;56.17;100899.22;4990470;28;20189;-72
2021/06/03 07:40:25;;;;;;;1.67;1.57;;;;;;;21.63;56.96;100906.16;4991421;28;20280;-72
2021/06/03 07:42:51;;;;;;;1.70;1.60;;;;;;;21.72;56.26;100897.56;4991430;28;20186;-72
2021/06/03 07:45:20;;;;;;;1.57;1.47;;;;;;;21.80;56.72;100900.03;4991478;28;20184;-72
2021/06/03 07:47:46;;;;;;;1.20;1.10;;;;;;;21.94;55.14;100905.78;4991507;28;20679;-72
2021/06/03 07:50:13;;;;;;;1.67;1.57;;;;;;;22.02;53.29;100897.56;4992574;28;20193;-71
2021/06/03 07:52:40;;;;;;;2.00;1.90;;;;;;;22.05;53.29;100903.19;4991309;28;20688;-72
2021/06/03 07:55:08;;;;;;;1.60;1.50;;;;;;;22.09;53.70;100895.69;4980880;28;20178;-72
2021/06/03 07:57:34;;;;;;;1.67;1.57;;;;;;;22.15;54.02;100893.38;4971786;28;20216;-71
2021/06/03 08:00:00;;;;;;;1.57;1.47;;;;;;;22.15;52.89;100890.59;4971632;28;20204;-71
2021/06/03 08:02:25;;;;;;;1.50;1.40;;;;;;;22.19;52.85;100897.00;4971844;28;20174;-72
2021/06/03 08:04:51;;;;;;;5.13;1.63;;;;;;;22.23;52.10;100895.06;4971709;28;20746;-72
2021/06/03 08:07:17;;;;;;;1.60;1.50;;;;;;;22.30;52.12;100891.56;4971581;28;20209;-72
2021/06/03 08:09:44;;;;;;;1.70;1.60;;;;;;;22.36;52.24;100896.41;4971518;28;20169;-72
2021/06/03 08:12:11;;;;;;;1.67;1.57;;;;;;;22.34;52.31;100898.78;4971686;28;20249;-72
2021/06/03 08:14:36;;;;;;;1.67;1.57;;;;;;;22.31;52.53;100895.94;4971548;28;20194;-71
2021/06/03 08:17:02;;;;;;;2.10;1.90;;;;;;;22.41;53.24;100895.25;4971592;28;20272;-72
2021/06/03 08:19:27;;;;;;;1.50;1.40;;;;;;;22.53;52.99;100897.78;4972656;28;20200;-71
2021/06/03 08:21:53;;;;;;;1.30;1.23;;;;;;;22.61;53.24;100905.03;4975615;28;20624;-71
2021/06/03 08:24:18;;;;;;;1.70;1.60;;;;;;;22.67;52.07;100905.47;4975547;28;20626;-71
2021/06/03 08:26:49;;;;;;;1.90;1.80;;;;;;;22.71;53.06;100898.78;4975325;28;20646;-72
2021/06/03 08:29:15;;;;;;;2.00;1.90;;;;;;;22.75;52.57;100905.19;4975059;28;20174;-72
2021/06/03 08:31:40;;;;;;;1.80;1.70;;;;;;;22.82;52.38;100905.28;4985097;28;20235;-72
2021/06/03 08:34:06;;;;;;;1.73;1.63;;;;;;;22.85;53.23;100903.69;4994488;28;20177;-70
2021/06/03 08:36:31;;;;;;;1.70;1.60;;;;;;;22.88;52.09;100911.31;4994613;28;20537;-70
2021/06/03 08:38:57;;;;;;;1.47;1.33;;;;;;;22.87;51.54;100906.13;4994267;28;20419;-71
2021/06/03 08:41:25;;;;;;;1.77;1.67;;;;;;;22.90;52.56;100906.16;4994648;28;20240;-72
2021/06/03 08:43:51;;;;;;;1.47;1.37;;;;;;;22.92;52.08;100908.56;4994531;28;20251;-72
2021/06/03 08:46:16;;;;;;;1.87;1.37;;;;;;;22.99;52.85;100908.59;4994380;28;20174;-71
2021/06/03 08:48:41;;;;;;;2.23;2.00;;;;;;;23.06;52.82;100917.84;4994117;28;20239;-71
2021/06/03 08:51:07;;;;;;;1.70;1.60;;;;;;;23.20;53.45;100914.38;4991567;28;20180;-72
2021/06/03 08:53:33;;;;;;;1.97;1.87;;;;;;;23.25;51.49;100914.00;4983457;28;20580;-72
2021/06/03 08:56:17;;;;;;;1.57;1.47;;;;;;;23.30;52.06;100916.47;4974921;28;20174;-71
2021/06/03 08:58:48;;;;;;;1.27;1.27;;;;;;;23.34;52.08;100908.13;4974721;28;20207;-72
2021/06/03 09:01:14;;;;;;;1.73;1.63;;;;;;;23.40;52.05;100912.94;4974746;28;20244;-72
2021/06/03 09:03:41;;;;;;;1.77;1.67;;;;;;;23.43;51.98;100911.34;4974625;28;20251;-72
2021/06/03 09:06:06;;;;;;;1.80;1.70;;;;;;;23.48;51.22;100911.00;4982982;28;20201;-72
2021/06/03 09:08:34;;;;;;;1.07;1.07;;;;;;;23.53;50.26;100909.84;4993653;28;20182;-73
2021/06/03 09:11:07;;;;;;;1.73;1.63;;;;;;;23.56;50.08;100911.84;4993140;28;20708;-72
2021/06/03 09:13:35;;;;;;;1.63;1.53;;;;;;;23.69;49.81;100913.16;4993839;28;20189;-72
2021/06/03 09:16:17;;;;;;;1.67;1.57;;;;;;;23.90;51.67;100918.88;4993788;28;20186;-72
2021/06/03 09:18:51;;;;;;;1.40;1.30;;;;;;;23.96;48.49;100919.28;4993626;28;20197;-72
2021/06/03 09:21:29;;;;;;;1.67;1.57;;;;;;;23.87;48.14;100918.81;4992004;28;20462;-71
2021/06/03 09:24:02;;;;;;;1.53;1.43;;;;;;;23.91;48.52;100919.66;4992572;28;20187;-72
2021/06/03 09:26:35;;;;;;;1.60;1.50;;;;;;;23.96;49.03;100917.28;4993335;28;20212;-72
2021/06/03 09:29:03;;;;;;;2.60;2.30;;;;;;;24.01;47.86;100916.13;4993231;28;20493;-72
2021/06/03 09:31:31;;;;;;;1.50;1.40;;;;;;;24.13;47.95;100921.34;4993093;28;20504;-72
2021/06/03 09:33:58;;;;;;;1.53;1.43;;;;;;;24.33;47.66;100908.72;4991896;28;20185;-70
2021/06/03 09:36:43;;;;;;;1.60;1.50;;;;;;;24.47;46.30;100916.34;4992873;28;20185;-70
2021/06/03 09:39:10;;;;;;;1.50;1.40;;;;;;;24.41;46.81;100915.13;4993125;28;20208;-70
2021/06/03 09:41:42;;;;;;;1.90;1.80;;;;;;;24.41;47.81;100908.72;4993272;28;20236;-70
2021/06/03 09:44:25;;;;;;;1.73;1.63;;;;;;;24.49;47.88;100910.38;4993421;28;20193;-69
2021/06/03 09:47:01;;;;;;;1.87;1.77;;;;;;;24.58;47.67;100913.56;4993161;28;20645;-72
2021/06/03 09:49:29;;;;;;;4.83;2.20;;;;;;;24.57;47.25;100912.75;4993391;28;20161;-70
2021/06/03 09:51:58;;;;;;;3.33;1.73;;;;;;;24.07;47.31;100916.56;4992998;28;20174;-70
2021/06/03 09:54:24;;;;;;;1.50;1.40;;;;;;;24.07;47.10;100922.94;4992972;28;20367;-70
2021/06/03 09:56:52;;;;;;;1.60;1.30;;;;;;;24.24;48.20;100913.84;4993182;28;20177;-70
2021/06/03 09:59:24;;;;;;;1.70;1.60;;;;;;;24.52;46.35;100921.53;4992850;28;20668;-70
2021/06/03 10:01:53;;;;;;;1.80;1.70;;;;;;;24.64;46.30;100914.78;4985704;28;20646;-72
2021/06/03 10:04:24;;;;;;;2.00;1.90;;;;;;;24.73;46.34;100917.97;4973515;28;20660;-72
2021/06/03 10:06:58;;;;;;;1.70;1.60;;;;;;;24.91;47.61;100926.41;4973696;28;20600;-70
2021/06/03 10:09:37;;;;;;;1.73;1.63;;;;;;;25.00;44.52;100918.44;4973244;28;20187;-70
2021/06/03 10:12:04;;;;;;;1.70;1.60;;;;;;;25.14;46.37;100921.25;4973360;28;20304;-70
2021/06/03 10:14:30;;;;;;;1.60;1.50;;;;;;;25.26;44.74;100924.88;4973316;28;20654;-70
2021/06/03 10:16:55;;;;;;;2.10;2.00;;;;;;;25.13;44.68;100921.66;4973380;28;20253;-70
2021/06/03 10:19:27;;;;;;;1.90;1.80;;;;;;;25.20;45.71;100922.47;4989527;28;20234;-70
2021/06/03 10:22:19;;;;;;;2.33;2.13;;;;;;;24.83;46.05;100914.41;4989497;28;20188;-70
2021/06/03 10:24:58;;;;;;;1.87;1.70;;;;;;;24.51;46.56;100913.56;4992324;28;20802;-70
2021/06/03 10:27:45;;;;;;;1.60;1.50;;;;;;;24.79;46.73;100915.63;4992905;28;20402;-70
2021/06/03 10:30:25;;;;;;;5.73;1.50;;;;;;;24.90;45.89;100913.66;4992660;28;20208;-70
2021/06/03 10:32:54;;;;;;;2.10;2.00;;;;;;;24.84;46.97;100910.41;4992500;28;20638;-70
2021/06/03 10:35:26;;;;;;;1.80;1.70;;;;;;;24.67;46.73;100914.00;4992804;28;20264;-70
2021/06/03 10:37:52;;;;;;;1.80;1.70;;;;;;;24.91;46.38;100912.44;4990920;28;20215;-70
2021/06/03 10:40:21;;;;;;;2.07;1.97;;;;;;;24.79;46.43;100901.63;4992072;28;20316;-70
2021/06/03 10:42:46;;;;;;;2.10;1.90;;;;;;;24.98;46.61;100904.03;4991587;28;20197;-72
2021/06/03 10:45:16;;;;;;;1.50;1.40;;;;;;;24.78;44.82;100912.03;4992228;28;20260;-70
2021/06/03 10:47:42;;;;;;;1.73;1.63;;;;;;;25.00;46.51;100900.84;4992105;28;20176;-69
2021/06/03 10:50:16;;;;;;;2.30;2.07;;;;;;;24.83;49.63;100908.81;4984369;28;20182;-69
2021/06/03 10:52:42;;;;;;;1.80;1.70;;;;;;;24.73;50.20;100906.81;4972828;28;20176;-70
2021/06/03 10:55:08;;;;;;;1.70;1.60;;;;;;;24.72;49.86;100908.00;4972509;28;20182;-70
2021/06/03 10:57:53;;;;;;;3.03;2.03;;;;;;;24.62;50.13;100900.41;4972424;28;20174;-69
2021/06/03 11:00:32;;;;;;;1.90;1.80;;;;;;;24.81;49.33;100914.03;4972350;28;20225;-72
2021/06/03 11:03:02;;;;;;;1.97;1.87;;;;;;;24.50;48.67;100911.97;4972313;28;20182;-70
2021/06/03 11:05:30;;;;;;;2.03;1.83;;;;;;;24.64;49.69;100900.81;4972374;28;20188;-72
2021/06/03 11:07:56;;;;;;;1.70;1.60;;;;;;;24.72;48.98;100885.66;4972102;28;20200;-72
2021/06/03 11:10:23;;;;;;;1.80;1.70;;;;;;;24.79;48.12;100890.47;4972071;28;20709;-72
2021/06/03 11:13:11;;;;;;;1.57;1.47;;;;;;;24.72;49.05;100884.84;4972016;28;20181;-72
2021/06/03 11:16:02;;;;;;;1.70;1.60;;;;;;;24.73;49.36;100892.03;4971782;28;20201;-72
2021/06/03 11:19:02;;;;;;;1.83;1.73;;;;;;;24.80;50.00;100887.25;4971731;28;20170;-71
2021/06/03 11:21:30;;;;;;;1.93;1.83;;;;;;;24.99;47.65;100880.47;4971981;28;20204;-73
2021/06/03 11:23:57;;;;;;;2.00;1.90;;;;;;;25.02;46.74;100884.50;4970727;28;20188;-72
2021/06/03 11:26:38;;;;;;;1.70;1.60;;;;;;;25.44;48.41;100886.47;4971992;28;20178;-72
2021/06/03 11:29:26;;;;;;;1.90;1.80;;;;;;;25.95;46.45;100893.59;4971757;28;20188;-72
2021/06/03 11:32:15;;;;;;;2.27;2.07;;;;;;;25.86;47.54;100882.81;4971923;28;20166;-70